sensor_id;sensor_type;location;lat;lon;timestamp;P1;durP1;ratioP1;P2;durP2;ratioP2
6259;SDS011;3163;51.516;4.000;2024-02-28T00:02:17;1.70;;;1.60;;
6259;SDS011;3163;51.516;4.000;2024-02-28T00:04:43;3.07;;;1.20;;
6259;SDS011;3163;51.516;4.000;2024-02-28T00:07:09;1.47;;;1.10;;
6259;SDS011;3163;51.516;4.000;2024-02-28T00:09:35;1.23;;;1.13;;
6259;SDS011;3163;51.516;4.000;2024-02-28T00:12:01;1.70;;;1.60;;
6259;SDS011;3163;51.516;4.000;2024-02-28T00:14:27;3.07;;;1.33;;
6259;SDS011;3163;51.516;4.000;2024-02-28T00:16:54;2.10;;;1.27;;
6259;SDS011;3163;51.516;4.000;2024-02-28T00:19:20;1.50;;;1.30;;
6259;SDS011;3163;51.516;4.000;2024-02-28T00:21:47;2.87;;;1.10;;
6259;SDS011;3163;51.516;4.000;2024-02-28T00:24:13;1.33;;;1.03;;
6259;SDS011;3163;51.516;4.000;2024-02-28T00:26:42;1.60;;;1.20;;
6259;SDS011;3163;51.516;4.000;2024-02-28T00:29:09;1.23;;;1.13;;
6259;SDS011;3163;51.516;4.000;2024-02-28T00:31:35;1.40;;;1.40;;
6259;SDS011;3163;51.516;4.000;2024-02-28T00:34:01;1.00;;;1.00;;
6259;SDS011;3163;51.516;4.000;2024-02-28T00:36:27;1.83;;;1.07;;
6259;SDS011;3163;51.516;4.000;2024-02-28T00:38:53;2.73;;;1.53;;
6259;SDS011;3163;51.516;4.000;2024-02-28T00:41:19;1.83;;;1.60;;
6259;SDS011;3163;51.516;4.000;2024-02-28T00:43:45;1.57;;;1.47;;
6259;SDS011;3163;51.516;4.000;2024-02-28T00:46:11;1.77;;;1.23;;
6259;SDS011;3163;51.516;4.000;2024-02-28T00:48:38;1.47;;;1.37;;
6259;SDS011;3163;51.516;4.000;2024-02-28T00:51:04;1.23;;;1.17;;
6259;SDS011;3163;51.516;4.000;2024-02-28T00:53:30;0.90;;;0.90;;
6259;SDS011;3163;51.516;4.000;2024-02-28T00:55:57;1.43;;;1.33;;
6259;SDS011;3163;51.516;4.000;2024-02-28T00:58:23;2.07;;;1.60;;
6259;SDS011;3163;51.516;4.000;2024-02-28T01:00:51;1.30;;;1.20;;
6259;SDS011;3163;51.516;4.000;2024-02-28T01:03:17;2.87;;;1.37;;
6259;SDS011;3163;51.516;4.000;2024-02-28T01:05:43;1.00;;;1.00;;
6259;SDS011;3163;51.516;4.000;2024-02-28T01:08:09;1.40;;;1.30;;
6259;SDS011;3163;51.516;4.000;2024-02-28T01:10:35;1.27;;;1.23;;
6259;SDS011;3163;51.516;4.000;2024-02-28T01:13:02;1.73;;;1.30;;
6259;SDS011;3163;51.516;4.000;2024-02-28T01:15:28;1.13;;;1.13;;
6259;SDS011;3163;51.516;4.000;2024-02-28T01:17:54;0.90;;;0.90;;
6259;SDS011;3163;51.516;4.000;2024-02-28T01:20:20;1.27;;;1.17;;
6259;SDS011;3163;51.516;4.000;2024-02-28T01:22:46;2.47;;;1.33;;
6259;SDS011;3163;51.516;4.000;2024-02-28T01:25:13;1.43;;;1.20;;
6259;SDS011;3163;51.516;4.000;2024-02-28T01:27:39;1.10;;;1.07;;
6259;SDS011;3163;51.516;4.000;2024-02-28T01:30:05;1.20;;;1.10;;
6259;SDS011;3163;51.516;4.000;2024-02-28T01:32:32;1.10;;;1.10;;
6259;SDS011;3163;51.516;4.000;2024-02-28T01:34:58;1.73;;;1.30;;
6259;SDS011;3163;51.516;4.000;2024-02-28T01:37:24;1.40;;;1.30;;
6259;SDS011;3163;51.516;4.000;2024-02-28T01:39:50;1.83;;;1.30;;
6259;SDS011;3163;51.516;4.000;2024-02-28T01:42:16;1.40;;;1.30;;
6259;SDS011;3163;51.516;4.000;2024-02-28T01:44:47;1.23;;;1.10;;
6259;SDS011;3163;51.516;4.000;2024-02-28T01:47:16;1.33;;;1.23;;
6259;SDS011;3163;51.516;4.000;2024-02-28T01:49:42;2.17;;;1.00;;
6259;SDS011;3163;51.516;4.000;2024-02-28T01:52:08;1.30;;;1.20;;
6259;SDS011;3163;51.516;4.000;2024-02-28T01:54:34;2.37;;;1.10;;
6259;SDS011;3163;51.516;4.000;2024-02-28T01:57:01;1.40;;;1.13;;
6259;SDS011;3163;51.516;4.000;2024-02-28T01:59:27;0.87;;;0.87;;
6259;SDS011;3163;51.516;4.000;2024-02-28T02:01:54;1.27;;;1.17;;
6259;SDS011;3163;51.516;4.000;2024-02-28T02:04:21;0.87;;;0.87;;
6259;SDS011;3163;51.516;4.000;2024-02-28T02:06:47;1.27;;;1.00;;
6259;SDS011;3163;51.516;4.000;2024-02-28T02:09:14;1.90;;;0.97;;
6259;SDS011;3163;51.516;4.000;2024-02-28T02:11:40;1.20;;;1.10;;
6259;SDS011;3163;51.516;4.000;2024-02-28T02:14:06;1.63;;;1.50;;
6259;SDS011;3163;51.516;4.000;2024-02-28T02:16:32;1.23;;;1.13;;
6259;SDS011;3163;51.516;4.000;2024-02-28T02:18:58;1.40;;;1.30;;
6259;SDS011;3163;51.516;4.000;2024-02-28T02:21:26;1.57;;;1.47;;
6259;SDS011;3163;51.516;4.000;2024-02-28T02:23:55;1.30;;;1.17;;
6259;SDS011;3163;51.516;4.000;2024-02-28T02:26:22;2.38;;;1.40;;
6259;SDS011;3163;51.516;4.000;2024-02-28T02:28:48;1.43;;;1.43;;
6259;SDS011;3163;51.516;4.000;2024-02-28T02:31:14;1.07;;;1.07;;
6259;SDS011;3163;51.516;4.000;2024-02-28T02:33:40;2.60;;;1.37;;
6259;SDS011;3163;51.516;4.000;2024-02-28T02:36:06;1.27;;;1.17;;
6259;SDS011;3163;51.516;4.000;2024-02-28T02:38:32;1.97;;;1.10;;
6259;SDS011;3163;51.516;4.000;2024-02-28T02:40:58;1.60;;;1.50;;
6259;SDS011;3163;51.516;4.000;2024-02-28T02:43:24;1.97;;;1.13;;
6259;SDS011;3163;51.516;4.000;2024-02-28T02:45:50;1.77;;;1.60;;
6259;SDS011;3163;51.516;4.000;2024-02-28T02:48:16;1.50;;;1.40;;
6259;SDS011;3163;51.516;4.000;2024-02-28T02:50:42;1.30;;;1.30;;
6259;SDS011;3163;51.516;4.000;2024-02-28T02:53:09;1.43;;;1.27;;
6259;SDS011;3163;51.516;4.000;2024-02-28T02:55:36;1.37;;;1.27;;
6259;SDS011;3163;51.516;4.000;2024-02-28T02:58:02;1.47;;;1.37;;
6259;SDS011;3163;51.516;4.000;2024-02-28T03:00:28;1.87;;;1.77;;
6259;SDS011;3163;51.516;4.000;2024-02-28T03:02:54;1.97;;;1.40;;
6259;SDS011;3163;51.516;4.000;2024-02-28T03:05:21;1.37;;;1.27;;
6259;SDS011;3163;51.516;4.000;2024-02-28T03:07:47;1.60;;;1.50;;
6259;SDS011;3163;51.516;4.000;2024-02-28T03:10:13;1.80;;;1.60;;
6259;SDS011;3163;51.516;4.000;2024-02-28T03:12:39;4.67;;;1.60;;
6259;SDS011;3163;51.516;4.000;2024-02-28T03:15:06;1.60;;;1.50;;
6259;SDS011;3163;51.516;4.000;2024-02-28T03:17:32;4.60;;;1.70;;
6259;SDS011;3163;51.516;4.000;2024-02-28T03:19:58;3.93;;;1.90;;
6259;SDS011;3163;51.516;4.000;2024-02-28T03:22:24;2.50;;;1.47;;
6259;SDS011;3163;51.516;4.000;2024-02-28T03:24:50;2.23;;;1.67;;
6259;SDS011;3163;51.516;4.000;2024-02-28T03:27:16;1.53;;;1.43;;
6259;SDS011;3163;51.516;4.000;2024-02-28T03:29:42;2.97;;;1.67;;
6259;SDS011;3163;51.516;4.000;2024-02-28T03:32:08;2.77;;;1.37;;
6259;SDS011;3163;51.516;4.000;2024-02-28T03:34:34;2.10;;;1.50;;
6259;SDS011;3163;51.516;4.000;2024-02-28T03:37:00;1.60;;;1.50;;
6259;SDS011;3163;51.516;4.000;2024-02-28T03:39:27;1.60;;;1.50;;
6259;SDS011;3163;51.516;4.000;2024-02-28T03:41:53;2.67;;;1.53;;
6259;SDS011;3163;51.516;4.000;2024-02-28T03:44:19;2.00;;;1.90;;
6259;SDS011;3163;51.516;4.000;2024-02-28T03:46:46;2.03;;;1.90;;
6259;SDS011;3163;51.516;4.000;2024-02-28T03:49:12;1.90;;;1.80;;
6259;SDS011;3163;51.516;4.000;2024-02-28T03:51:39;1.93;;;1.40;;
6259;SDS011;3163;51.516;4.000;2024-02-28T03:54:05;2.17;;;1.70;;
6259;SDS011;3163;51.516;4.000;2024-02-28T03:56:31;1.80;;;1.70;;
6259;SDS011;3163;51.516;4.000;2024-02-28T03:58:57;2.57;;;1.67;;
6259;SDS011;3163;51.516;4.000;2024-02-28T04:01:23;1.60;;;1.50;;
6259;SDS011;3163;51.516;4.000;2024-02-28T04:03:49;2.10;;;1.90;;
6259;SDS011;3163;51.516;4.000;2024-02-28T04:06:15;1.70;;;1.60;;
6259;SDS011;3163;51.516;4.000;2024-02-28T04:08:41;2.37;;;1.77;;
6259;SDS011;3163;51.516;4.000;2024-02-28T04:11:07;1.60;;;1.50;;
6259;SDS011;3163;51.516;4.000;2024-02-28T04:13:33;3.53;;;1.77;;
6259;SDS011;3163;51.516;4.000;2024-02-28T04:15:59;2.17;;;1.63;;
6259;SDS011;3163;51.516;4.000;2024-02-28T04:18:25;1.77;;;1.67;;
6259;SDS011;3163;51.516;4.000;2024-02-28T04:20:51;2.33;;;1.67;;
6259;SDS011;3163;51.516;4.000;2024-02-28T04:23:17;2.13;;;1.50;;
6259;SDS011;3163;51.516;4.000;2024-02-28T04:25:43;3.07;;;2.67;;
6259;SDS011;3163;51.516;4.000;2024-02-28T04:28:09;2.47;;;1.63;;
6259;SDS011;3163;51.516;4.000;2024-02-28T04:30:35;3.13;;;1.53;;
6259;SDS011;3163;51.516;4.000;2024-02-28T04:33:02;1.97;;;1.80;;
6259;SDS011;3163;51.516;4.000;2024-02-28T04:35:28;5.80;;;1.77;;
6259;SDS011;3163;51.516;4.000;2024-02-28T04:37:54;2.13;;;1.87;;
6259;SDS011;3163;51.516;4.000;2024-02-28T04:40:20;2.20;;;2.00;;
6259;SDS011;3163;51.516;4.000;2024-02-28T04:42:46;2.37;;;2.00;;
6259;SDS011;3163;51.516;4.000;2024-02-28T04:45:12;1.70;;;1.57;;
6259;SDS011;3163;51.516;4.000;2024-02-28T04:47:38;3.10;;;2.37;;
6259;SDS011;3163;51.516;4.000;2024-02-28T04:50:04;2.33;;;1.80;;
6259;SDS011;3163;51.516;4.000;2024-02-28T04:52:33;2.00;;;1.80;;
6259;SDS011;3163;51.516;4.000;2024-02-28T04:54:59;1.80;;;1.47;;
6259;SDS011;3163;51.516;4.000;2024-02-28T04:57:26;1.90;;;1.80;;
6259;SDS011;3163;51.516;4.000;2024-02-28T04:59:52;1.87;;;1.77;;
6259;SDS011;3163;51.516;4.000;2024-02-28T05:02:18;2.23;;;1.90;;
6259;SDS011;3163;51.516;4.000;2024-02-28T05:04:47;2.33;;;2.00;;
6259;SDS011;3163;51.516;4.000;2024-02-28T05:07:13;3.30;;;2.10;;
6259;SDS011;3163;51.516;4.000;2024-02-28T05:09:39;2.03;;;1.70;;
6259;SDS011;3163;51.516;4.000;2024-02-28T05:12:05;2.83;;;1.87;;
6259;SDS011;3163;51.516;4.000;2024-02-28T05:14:31;2.97;;;2.20;;
6259;SDS011;3163;51.516;4.000;2024-02-28T05:16:57;3.67;;;1.90;;
6259;SDS011;3163;51.516;4.000;2024-02-28T05:19:23;3.37;;;2.50;;
6259;SDS011;3163;51.516;4.000;2024-02-28T05:21:49;2.13;;;1.67;;
6259;SDS011;3163;51.516;4.000;2024-02-28T05:24:15;2.10;;;1.90;;
6259;SDS011;3163;51.516;4.000;2024-02-28T05:26:41;2.90;;;2.17;;
6259;SDS011;3163;51.516;4.000;2024-02-28T05:29:07;1.77;;;1.67;;
6259;SDS011;3163;51.516;4.000;2024-02-28T05:31:33;4.47;;;2.23;;
6259;SDS011;3163;51.516;4.000;2024-02-28T05:34:00;2.63;;;1.73;;
6259;SDS011;3163;51.516;4.000;2024-02-28T05:36:30;3.63;;;2.07;;
6259;SDS011;3163;51.516;4.000;2024-02-28T05:38:56;3.73;;;2.07;;
6259;SDS011;3163;51.516;4.000;2024-02-28T05:41:23;2.40;;;1.93;;
6259;SDS011;3163;51.516;4.000;2024-02-28T05:43:49;4.40;;;2.27;;
6259;SDS011;3163;51.516;4.000;2024-02-28T05:46:16;5.10;;;2.10;;
6259;SDS011;3163;51.516;4.000;2024-02-28T05:48:45;4.60;;;2.10;;
6259;SDS011;3163;51.516;4.000;2024-02-28T05:51:11;2.03;;;1.83;;
6259;SDS011;3163;51.516;4.000;2024-02-28T05:53:41;3.30;;;2.07;;
6259;SDS011;3163;51.516;4.000;2024-02-28T05:56:08;1.80;;;1.70;;
6259;SDS011;3163;51.516;4.000;2024-02-28T05:58:42;2.30;;;2.10;;
6259;SDS011;3163;51.516;4.000;2024-02-28T06:01:09;2.83;;;2.40;;
6259;SDS011;3163;51.516;4.000;2024-02-28T06:03:35;3.57;;;2.33;;
6259;SDS011;3163;51.516;4.000;2024-02-28T06:06:02;2.10;;;1.90;;
6259;SDS011;3163;51.516;4.000;2024-02-28T06:08:30;2.60;;;2.40;;
6259;SDS011;3163;51.516;4.000;2024-02-28T06:10:57;2.30;;;1.97;;
6259;SDS011;3163;51.516;4.000;2024-02-28T06:13:22;2.50;;;2.27;;
6259;SDS011;3163;51.516;4.000;2024-02-28T06:15:48;2.10;;;1.70;;
6259;SDS011;3163;51.516;4.000;2024-02-28T06:18:14;4.33;;;2.10;;
6259;SDS011;3163;51.516;4.000;2024-02-28T06:20:40;2.27;;;1.70;;
6259;SDS011;3163;51.516;4.000;2024-02-28T06:23:07;2.10;;;1.93;;
6259;SDS011;3163;51.516;4.000;2024-02-28T06:25:33;4.50;;;2.37;;
6259;SDS011;3163;51.516;4.000;2024-02-28T06:27:59;2.27;;;1.90;;
6259;SDS011;3163;51.516;4.000;2024-02-28T06:30:27;4.13;;;2.30;;
6259;SDS011;3163;51.516;4.000;2024-02-28T06:32:53;3.17;;;1.80;;
6259;SDS011;3163;51.516;4.000;2024-02-28T06:35:19;3.03;;;2.30;;
6259;SDS011;3163;51.516;4.000;2024-02-28T06:37:46;5.93;;;2.50;;
6259;SDS011;3163;51.516;4.000;2024-02-28T06:40:15;5.50;;;2.37;;
6259;SDS011;3163;51.516;4.000;2024-02-28T06:42:41;3.40;;;2.73;;
6259;SDS011;3163;51.516;4.000;2024-02-28T06:45:07;2.10;;;1.73;;
6259;SDS011;3163;51.516;4.000;2024-02-28T06:47:33;2.80;;;2.60;;
6259;SDS011;3163;51.516;4.000;2024-02-28T06:50:01;2.37;;;2.13;;
6259;SDS011;3163;51.516;4.000;2024-02-28T06:52:27;3.03;;;2.20;;
6259;SDS011;3163;51.516;4.000;2024-02-28T06:54:53;3.43;;;1.97;;
6259;SDS011;3163;51.516;4.000;2024-02-28T06:57:19;9.10;;;5.60;;
6259;SDS011;3163;51.516;4.000;2024-02-28T06:59:45;15.57;;;6.73;;
6259;SDS011;3163;51.516;4.000;2024-02-28T07:02:11;11.80;;;6.60;;
6259;SDS011;3163;51.516;4.000;2024-02-28T07:04:38;12.90;;;6.47;;
6259;SDS011;3163;51.516;4.000;2024-02-28T07:07:05;10.13;;;6.07;;
6259;SDS011;3163;51.516;4.000;2024-02-28T07:09:31;8.43;;;6.03;;
6259;SDS011;3163;51.516;4.000;2024-02-28T07:11:58;10.80;;;6.07;;
6259;SDS011;3163;51.516;4.000;2024-02-28T07:14:24;9.83;;;5.40;;
6259;SDS011;3163;51.516;4.000;2024-02-28T07:16:50;50.03;;;31.90;;
6259;SDS011;3163;51.516;4.000;2024-02-28T07:19:17;10.30;;;7.60;;
6259;SDS011;3163;51.516;4.000;2024-02-28T07:21:43;11.57;;;7.90;;
6259;SDS011;3163;51.516;4.000;2024-02-28T07:24:10;14.27;;;7.90;;
6259;SDS011;3163;51.516;4.000;2024-02-28T07:26:36;10.27;;;8.17;;
6259;SDS011;3163;51.516;4.000;2024-02-28T07:29:02;15.13;;;8.07;;
6259;SDS011;3163;51.516;4.000;2024-02-28T07:31:28;11.20;;;7.40;;
6259;SDS011;3163;51.516;4.000;2024-02-28T07:33:54;16.37;;;7.53;;
6259;SDS011;3163;51.516;4.000;2024-02-28T07:36:20;8.77;;;6.77;;
6259;SDS011;3163;51.516;4.000;2024-02-28T07:38:46;12.73;;;6.30;;
6259;SDS011;3163;51.516;4.000;2024-02-28T07:41:12;12.17;;;6.73;;
6259;SDS011;3163;51.516;4.000;2024-02-28T07:43:41;9.63;;;7.00;;
6259;SDS011;3163;51.516;4.000;2024-02-28T07:46:08;10.70;;;7.50;;
6259;SDS011;3163;51.516;4.000;2024-02-28T07:48:34;11.90;;;7.20;;
6259;SDS011;3163;51.516;4.000;2024-02-28T07:51:00;10.90;;;6.73;;
6259;SDS011;3163;51.516;4.000;2024-02-28T07:53:26;10.67;;;6.43;;
6259;SDS011;3163;51.516;4.000;2024-02-28T07:55:52;9.23;;;6.37;;
6259;SDS011;3163;51.516;4.000;2024-02-28T07:58:18;9.60;;;6.20;;
6259;SDS011;3163;51.516;4.000;2024-02-28T08:00:44;13.00;;;6.10;;
6259;SDS011;3163;51.516;4.000;2024-02-28T08:03:10;7.63;;;5.70;;
6259;SDS011;3163;51.516;4.000;2024-02-28T08:05:36;8.80;;;6.50;;
6259;SDS011;3163;51.516;4.000;2024-02-28T08:08:06;12.13;;;6.10;;
6259;SDS011;3163;51.516;4.000;2024-02-28T08:10:32;8.30;;;5.27;;
6259;SDS011;3163;51.516;4.000;2024-02-28T08:13:00;7.00;;;5.30;;
6259;SDS011;3163;51.516;4.000;2024-02-28T08:15:26;11.90;;;6.50;;
6259;SDS011;3163;51.516;4.000;2024-02-28T08:17:52;11.57;;;6.20;;
6259;SDS011;3163;51.516;4.000;2024-02-28T08:20:19;9.93;;;6.07;;
6259;SDS011;3163;51.516;4.000;2024-02-28T08:22:45;8.53;;;5.87;;
6259;SDS011;3163;51.516;4.000;2024-02-28T08:25:11;8.70;;;5.13;;
6259;SDS011;3163;51.516;4.000;2024-02-28T08:27:37;7.23;;;4.77;;
6259;SDS011;3163;51.516;4.000;2024-02-28T08:30:04;8.47;;;5.57;;
6259;SDS011;3163;51.516;4.000;2024-02-28T08:32:33;7.87;;;5.10;;
6259;SDS011;3163;51.516;4.000;2024-02-28T08:34:59;10.17;;;5.93;;
6259;SDS011;3163;51.516;4.000;2024-02-28T08:37:25;11.47;;;6.67;;
6259;SDS011;3163;51.516;4.000;2024-02-28T08:39:53;6.50;;;4.50;;
6259;SDS011;3163;51.516;4.000;2024-02-28T08:42:24;9.20;;;4.90;;
6259;SDS011;3163;51.516;4.000;2024-02-28T08:44:50;10.30;;;6.13;;
6259;SDS011;3163;51.516;4.000;2024-02-28T08:47:17;8.63;;;5.37;;
6259;SDS011;3163;51.516;4.000;2024-02-28T08:49:44;9.47;;;5.07;;
6259;SDS011;3163;51.516;4.000;2024-02-28T08:52:10;13.17;;;6.20;;
6259;SDS011;3163;51.516;4.000;2024-02-28T08:54:36;8.60;;;5.17;;
6259;SDS011;3163;51.516;4.000;2024-02-28T08:57:02;11.87;;;5.70;;
6259;SDS011;3163;51.516;4.000;2024-02-28T08:59:29;10.33;;;5.00;;
6259;SDS011;3163;51.516;4.000;2024-02-28T09:01:55;9.23;;;5.53;;
6259;SDS011;3163;51.516;4.000;2024-02-28T09:04:21;9.13;;;5.50;;
6259;SDS011;3163;51.516;4.000;2024-02-28T09:06:47;8.83;;;5.00;;
6259;SDS011;3163;51.516;4.000;2024-02-28T09:09:13;7.20;;;4.87;;
6259;SDS011;3163;51.516;4.000;2024-02-28T09:11:39;9.47;;;5.90;;
6259;SDS011;3163;51.516;4.000;2024-02-28T09:14:05;8.60;;;5.30;;
6259;SDS011;3163;51.516;4.000;2024-02-28T09:16:31;7.50;;;5.33;;
6259;SDS011;3163;51.516;4.000;2024-02-28T09:18:57;8.17;;;5.73;;
6259;SDS011;3163;51.516;4.000;2024-02-28T09:21:23;11.03;;;6.37;;
6259;SDS011;3163;51.516;4.000;2024-02-28T09:23:49;7.77;;;4.73;;
6259;SDS011;3163;51.516;4.000;2024-02-28T09:26:15;13.57;;;5.33;;
6259;SDS011;3163;51.516;4.000;2024-02-28T09:28:41;8.53;;;5.23;;
6259;SDS011;3163;51.516;4.000;2024-02-28T09:31:07;8.33;;;4.80;;
6259;SDS011;3163;51.516;4.000;2024-02-28T09:33:34;17.27;;;6.43;;
6259;SDS011;3163;51.516;4.000;2024-02-28T09:36:01;10.50;;;6.00;;
6259;SDS011;3163;51.516;4.000;2024-02-28T09:38:28;11.83;;;5.50;;
6259;SDS011;3163;51.516;4.000;2024-02-28T09:40:54;11.67;;;5.27;;
6259;SDS011;3163;51.516;4.000;2024-02-28T09:44:02;8.43;;;5.23;;
6259;SDS011;3163;51.516;4.000;2024-02-28T09:46:09;9.87;;;6.00;;
6259;SDS011;3163;51.516;4.000;2024-02-28T09:48:38;12.20;;;6.10;;
6259;SDS011;3163;51.516;4.000;2024-02-28T09:51:04;8.67;;;5.30;;
6259;SDS011;3163;51.516;4.000;2024-02-28T09:53:30;10.03;;;5.93;;
6259;SDS011;3163;51.516;4.000;2024-02-28T09:55:56;7.67;;;4.70;;
6259;SDS011;3163;51.516;4.000;2024-02-28T09:58:22;8.30;;;4.80;;
6259;SDS011;3163;51.516;4.000;2024-02-28T10:00:48;5.33;;;4.13;;
6259;SDS011;3163;51.516;4.000;2024-02-28T10:03:18;14.23;;;7.68;;
6259;SDS011;3163;51.516;4.000;2024-02-28T10:05:47;8.93;;;5.60;;
6259;SDS011;3163;51.516;4.000;2024-02-28T10:08:13;17.70;;;8.23;;
6259;SDS011;3163;51.516;4.000;2024-02-28T10:10:49;15.40;;;7.13;;
6259;SDS011;3163;51.516;4.000;2024-02-28T10:13:19;8.73;;;5.90;;
6259;SDS011;3163;51.516;4.000;2024-02-28T10:15:45;11.17;;;6.93;;
6259;SDS011;3163;51.516;4.000;2024-02-28T10:18:11;14.27;;;7.00;;
6259;SDS011;3163;51.516;4.000;2024-02-28T10:20:37;13.40;;;6.97;;
6259;SDS011;3163;51.516;4.000;2024-02-28T10:23:07;15.93;;;6.77;;
6259;SDS011;3163;51.516;4.000;2024-02-28T10:25:44;8.63;;;6.20;;
6259;SDS011;3163;51.516;4.000;2024-02-28T10:28:11;13.87;;;7.47;;
6259;SDS011;3163;51.516;4.000;2024-02-28T10:30:39;11.63;;;6.73;;
6259;SDS011;3163;51.516;4.000;2024-02-28T10:33:09;9.77;;;6.60;;
6259;SDS011;3163;51.516;4.000;2024-02-28T10:35:35;14.47;;;6.57;;
6259;SDS011;3163;51.516;4.000;2024-02-28T10:38:02;11.00;;;6.47;;
6259;SDS011;3163;51.516;4.000;2024-02-28T10:40:28;8.53;;;5.87;;
6259;SDS011;3163;51.516;4.000;2024-02-28T10:42:54;13.43;;;6.90;;
6259;SDS011;3163;51.516;4.000;2024-02-28T10:45:21;11.03;;;6.30;;
6259;SDS011;3163;51.516;4.000;2024-02-28T10:47:50;10.20;;;6.33;;
6259;SDS011;3163;51.516;4.000;2024-02-28T10:50:17;10.53;;;6.47;;
6259;SDS011;3163;51.516;4.000;2024-02-28T10:52:43;8.23;;;5.90;;
6259;SDS011;3163;51.516;4.000;2024-02-28T10:55:15;10.40;;;6.00;;
6259;SDS011;3163;51.516;4.000;2024-02-28T10:57:42;9.17;;;5.77;;
6259;SDS011;3163;51.516;4.000;2024-02-28T11:00:10;12.67;;;6.30;;
6259;SDS011;3163;51.516;4.000;2024-02-28T11:02:37;8.03;;;5.80;;
6259;SDS011;3163;51.516;4.000;2024-02-28T11:05:04;11.47;;;6.33;;
6259;SDS011;3163;51.516;4.000;2024-02-28T11:07:30;6.77;;;5.30;;
6259;SDS011;3163;51.516;4.000;2024-02-28T11:09:56;9.93;;;6.37;;
6259;SDS011;3163;51.516;4.000;2024-02-28T11:12:25;7.37;;;5.47;;
6259;SDS011;3163;51.516;4.000;2024-02-28T11:14:58;7.67;;;5.20;;
6259;SDS011;3163;51.516;4.000;2024-02-28T11:17:26;7.13;;;5.13;;
6259;SDS011;3163;51.516;4.000;2024-02-28T11:19:53;11.97;;;5.80;;
6259;SDS011;3163;51.516;4.000;2024-02-28T11:22:19;5.83;;;5.23;;
6259;SDS011;3163;51.516;4.000;2024-02-28T11:24:47;8.13;;;6.50;;
6259;SDS011;3163;51.516;4.000;2024-02-28T11:27:16;9.93;;;6.00;;
6259;SDS011;3163;51.516;4.000;2024-02-28T11:29:42;8.30;;;5.77;;
6259;SDS011;3163;51.516;4.000;2024-02-28T11:32:10;6.13;;;5.07;;
6259;SDS011;3163;51.516;4.000;2024-02-28T11:34:37;7.53;;;5.37;;
6259;SDS011;3163;51.516;4.000;2024-02-28T11:37:05;7.43;;;5.77;;
6259;SDS011;3163;51.516;4.000;2024-02-28T11:39:31;9.20;;;5.50;;
6259;SDS011;3163;51.516;4.000;2024-02-28T11:42:10;11.70;;;6.53;;
6259;SDS011;3163;51.516;4.000;2024-02-28T11:44:38;7.33;;;5.60;;
6259;SDS011;3163;51.516;4.000;2024-02-28T11:47:05;8.57;;;5.87;;
6259;SDS011;3163;51.516;4.000;2024-02-28T11:49:34;8.17;;;5.03;;
6259;SDS011;3163;51.516;4.000;2024-02-28T11:52:00;6.97;;;4.93;;
6259;SDS011;3163;51.516;4.000;2024-02-28T11:54:26;10.13;;;5.27;;
6259;SDS011;3163;51.516;4.000;2024-02-28T11:56:52;10.57;;;5.83;;
6259;SDS011;3163;51.516;4.000;2024-02-28T11:59:19;8.10;;;4.97;;
6259;SDS011;3163;51.516;4.000;2024-02-28T12:01:45;8.60;;;5.03;;
6259;SDS011;3163;51.516;4.000;2024-02-28T12:04:11;12.83;;;6.07;;
6259;SDS011;3163;51.516;4.000;2024-02-28T12:06:38;8.50;;;5.23;;
6259;SDS011;3163;51.516;4.000;2024-02-28T12:09:05;4.73;;;4.23;;
6259;SDS011;3163;51.516;4.000;2024-02-28T12:11:33;7.33;;;5.03;;
6259;SDS011;3163;51.516;4.000;2024-02-28T12:14:02;4.50;;;4.00;;
6259;SDS011;3163;51.516;4.000;2024-02-28T12:16:29;4.80;;;3.67;;
6259;SDS011;3163;51.516;4.000;2024-02-28T12:18:55;6.70;;;4.47;;
6259;SDS011;3163;51.516;4.000;2024-02-28T12:21:21;10.70;;;4.50;;
6259;SDS011;3163;51.516;4.000;2024-02-28T12:23:49;6.50;;;4.20;;
6259;SDS011;3163;51.516;4.000;2024-02-28T12:26:16;4.73;;;3.93;;
6259;SDS011;3163;51.516;4.000;2024-02-28T12:28:45;7.17;;;4.73;;
6259;SDS011;3163;51.516;4.000;2024-02-28T12:31:12;6.07;;;4.50;;
6259;SDS011;3163;51.516;4.000;2024-02-28T12:33:38;5.53;;;4.40;;
6259;SDS011;3163;51.516;4.000;2024-02-28T12:36:04;8.30;;;4.10;;
6259;SDS011;3163;51.516;4.000;2024-02-28T12:38:31;5.63;;;4.27;;
6259;SDS011;3163;51.516;4.000;2024-02-28T12:40:57;4.23;;;3.80;;
6259;SDS011;3163;51.516;4.000;2024-02-28T12:43:23;5.40;;;4.47;;
6259;SDS011;3163;51.516;4.000;2024-02-28T12:45:54;7.33;;;4.10;;
6259;SDS011;3163;51.516;4.000;2024-02-28T12:48:20;4.47;;;3.47;;
6259;SDS011;3163;51.516;4.000;2024-02-28T12:50:46;3.47;;;3.20;;
6259;SDS011;3163;51.516;4.000;2024-02-28T12:53:13;4.80;;;3.70;;
6259;SDS011;3163;51.516;4.000;2024-02-28T12:55:39;5.30;;;4.20;;
6259;SDS011;3163;51.516;4.000;2024-02-28T12:58:05;5.83;;;3.67;;
6259;SDS011;3163;51.516;4.000;2024-02-28T13:00:31;5.33;;;3.57;;
6259;SDS011;3163;51.516;4.000;2024-02-28T13:02:58;8.87;;;3.60;;
6259;SDS011;3163;51.516;4.000;2024-02-28T13:05:24;6.43;;;4.60;;
6259;SDS011;3163;51.516;4.000;2024-02-28T13:07:50;4.80;;;3.73;;
6259;SDS011;3163;51.516;4.000;2024-02-28T13:10:18;7.13;;;4.20;;
6259;SDS011;3163;51.516;4.000;2024-02-28T13:12:44;5.07;;;3.53;;
6259;SDS011;3163;51.516;4.000;2024-02-28T13:15:10;7.07;;;4.37;;
6259;SDS011;3163;51.516;4.000;2024-02-28T13:17:36;4.07;;;3.67;;
6259;SDS011;3163;51.516;4.000;2024-02-28T13:20:02;3.80;;;3.50;;
6259;SDS011;3163;51.516;4.000;2024-02-28T13:22:28;4.17;;;3.57;;
6259;SDS011;3163;51.516;4.000;2024-02-28T13:24:54;6.43;;;3.50;;
6259;SDS011;3163;51.516;4.000;2024-02-28T13:27:20;3.80;;;3.20;;
6259;SDS011;3163;51.516;4.000;2024-02-28T13:29:46;3.43;;;2.80;;
6259;SDS011;3163;51.516;4.000;2024-02-28T13:32:12;6.03;;;3.63;;
6259;SDS011;3163;51.516;4.000;2024-02-28T13:34:39;4.23;;;3.63;;
6259;SDS011;3163;51.516;4.000;2024-02-28T13:37:05;4.43;;;4.00;;
6259;SDS011;3163;51.516;4.000;2024-02-28T13:39:31;3.50;;;3.17;;
6259;SDS011;3163;51.516;4.000;2024-02-28T13:41:57;3.73;;;3.33;;
6259;SDS011;3163;51.516;4.000;2024-02-28T13:44:24;3.33;;;2.77;;
6259;SDS011;3163;51.516;4.000;2024-02-28T13:46:50;7.77;;;4.00;;
6259;SDS011;3163;51.516;4.000;2024-02-28T13:49:18;3.53;;;3.20;;
6259;SDS011;3163;51.516;4.000;2024-02-28T13:51:45;2.97;;;2.77;;
6259;SDS011;3163;51.516;4.000;2024-02-28T13:54:12;3.23;;;2.87;;
6259;SDS011;3163;51.516;4.000;2024-02-28T13:56:38;3.63;;;3.20;;
6259;SDS011;3163;51.516;4.000;2024-02-28T13:59:04;5.90;;;2.70;;
6259;SDS011;3163;51.516;4.000;2024-02-28T14:01:31;6.10;;;3.70;;
6259;SDS011;3163;51.516;4.000;2024-02-28T14:03:57;4.03;;;2.30;;
6259;SDS011;3163;51.516;4.000;2024-02-28T14:06:23;4.53;;;2.80;;
6259;SDS011;3163;51.516;4.000;2024-02-28T14:08:49;3.83;;;2.73;;
6259;SDS011;3163;51.516;4.000;2024-02-28T14:11:17;3.03;;;2.53;;
6259;SDS011;3163;51.516;4.000;2024-02-28T14:13:43;3.57;;;2.90;;
6259;SDS011;3163;51.516;4.000;2024-02-28T14:16:09;3.83;;;3.23;;
6259;SDS011;3163;51.516;4.000;2024-02-28T14:18:35;2.53;;;2.27;;
6259;SDS011;3163;51.516;4.000;2024-02-28T14:21:02;2.83;;;2.50;;
6259;SDS011;3163;51.516;4.000;2024-02-28T14:23:28;3.37;;;3.07;;
6259;SDS011;3163;51.516;4.000;2024-02-28T14:25:54;3.23;;;2.90;;
6259;SDS011;3163;51.516;4.000;2024-02-28T14:28:20;1.90;;;1.80;;
6259;SDS011;3163;51.516;4.000;2024-02-28T14:30:46;4.23;;;2.60;;
6259;SDS011;3163;51.516;4.000;2024-02-28T14:33:14;4.33;;;3.93;;
6259;SDS011;3163;51.516;4.000;2024-02-28T14:35:40;5.10;;;2.87;;
6259;SDS011;3163;51.516;4.000;2024-02-28T14:38:07;2.80;;;2.50;;
6259;SDS011;3163;51.516;4.000;2024-02-28T14:40:33;2.77;;;2.47;;
6259;SDS011;3163;51.516;4.000;2024-02-28T14:42:59;10.03;;;2.90;;
6259;SDS011;3163;51.516;4.000;2024-02-28T14:45:25;4.97;;;2.73;;
6259;SDS011;3163;51.516;4.000;2024-02-28T14:47:53;2.97;;;2.70;;
6259;SDS011;3163;51.516;4.000;2024-02-28T14:50:19;3.00;;;2.77;;
6259;SDS011;3163;51.516;4.000;2024-02-28T14:52:45;5.00;;;2.97;;
6259;SDS011;3163;51.516;4.000;2024-02-28T14:55:12;1.63;;;1.53;;
6259;SDS011;3163;51.516;4.000;2024-02-28T14:57:38;3.60;;;2.83;;
6259;SDS011;3163;51.516;4.000;2024-02-28T15:00:08;2.80;;;2.60;;
6259;SDS011;3163;51.516;4.000;2024-02-28T15:02:38;4.93;;;2.47;;
6259;SDS011;3163;51.516;4.000;2024-02-28T15:05:05;3.33;;;2.40;;
6259;SDS011;3163;51.516;4.000;2024-02-28T15:07:31;2.77;;;2.20;;
6259;SDS011;3163;51.516;4.000;2024-02-28T15:09:57;3.30;;;2.40;;